Aviation Digital Data Service (ADDS)

Output produced by METARs form (1624 UTC 23 January 2019)
found at http://www.aviationweather.gov/metar/data/
 
Forecast for: RJOA (NEW HIROSHIMA , JP)
Text: TAF RJOA 231105Z 2312/2418 32005KT 9999 FEW020 BKN040
Forecast period: 1200 UTC 23 January 2019 to 1200 UTC 24 January 2019
Forecast type: FROM: standard forecast or significant change
Winds: from the NW (320 degrees) at 6 MPH (5 knots; 2.6 m/s)
Visibility: 6 or more miles 10+ km)
Ceiling: 4000 feet AGL
Clouds: few clouds at 2000 feet AGL
broken clouds at 4000 feet AGL
Weather: no significant weather forecast for this period
Text: BECMG 2412/2415 07005KT
Forecast period: 1200 to 1800 UTC 24 January 2019
Forecast type: BECOMING: Conditions expected to become as follows by 1500 UTC 24 January 2019
Winds: from the ENE (70 degrees) at 6 MPH (5 knots; 2.6 m/s)
Visibility: 6 or more miles 10+ km)
Ceiling: 4000 feet AGL
Clouds: few clouds at 2000 feet AGL
broken clouds at 4000 feet AGL
Weather: no significant weather forecast for this period